Terminal Aerodrome Forecast
Issued by NWS

Home | Current Version | Previous Version | Graphics & Text | Print | Product List | Glossary On
Versions: 1 2 3 4 5 6 7 8 9 10 11 12 13 14
690
FTUS43 KIWX 210412 AAB
TAFSBN
TAF AMD
KSBN 210412Z 2104/2124 11012KT 6SM BR OVC004
      TEMPO 2105/2106 SCT004 OVC012
     FM210600 14007KT 5SM BR OVC020
     FM211200 22007KT 5SM BR BKN008
     FM211500 24010KT P6SM SCT030=

USA.gov is the U.S. government's official web portal to all federal, state and local government web resources and services.